Terminal Aerodrome Forecast
Issued by NWS

Home | Current Version | Previous Version | Text Only | Print | Product List | Glossary On
Versions: 1 2 3 4 5 6 7 8 9 10 11 12 13 14 15 16 17 18 19 20 21
766
FTUS46 KMFR 191531 AAB
TAFOTH
TAF AMD
KOTH 191531Z 1916/2012 17008KT P6SM -SHRA SCT025 OVC040
     FM191700 18014G21KT P6SM -SHRA BKN020 OVC040
     FM191900 21015G25KT P6SM -SHRA BKN025 BKN150
     FM200600 16005KT P6SM -SHRA OVC050
     FM200900 15006KT P6SM -RA SCT012 OVC025
     FM201100 18014G22KT P6SM -RA OVC015=

USA.gov is the U.S. government's official web portal to all federal, state and local government web resources and services.